Wichita Mid Continent Airport
KICT : now visible

Aeroporto :











RITROVATECI SU...

 
LOGIN :

Iscrizione | Disclaimer

   EN    FR    IT 

 









Sommario :    VFR   VFR Marginale   IFR   IFR Intensivo   IFR Molto Intensivo
Visibilità : 
Base nubi : 
>= 8 km
>= 3000ft
5 / 8 km
1000 / 3000 ft
1500m / 5 km
500 / 1000 ft
800 / 1500m
200 / 500 ft
< 800m
< 200 ft
Simboli :   Temporali  Nebbia  Neve Forte  Precipitazioni Forti  Vento > 20 kt







- Altitudine del aeroporto : 1333 ft
- Codice IATA : ICT


KICT - Wichita Mid Continent

ULTIMO METAR :
  • 210519Z 17013KT 10SM BKN013 BKN049 OVC065 23/21 A2993 RMK AO2 T02330211

METARs OBSOLETI :
  • 210453Z 18013KT 10SM SCT015 BKN048 OVC065 24/21 A2993 RMK AO2 SLP123 T02390211
  • 210411Z 18014G23KT 10SM BKN016 24/21 A2992 RMK AO2 T02390211
  • 210353Z 17016G23KT 10SM BKN014 BKN180 24/21 A2992 RMK AO2 SLP119 T02390211
  • 210253Z 16013KT 10SM SCT060 SCT180 24/21 A2991 RMK AO2 SLP116 T02390211 53004

TAF KICT
Valido dal 21 a 04 ore il 22 a 00 ore UTC


210400Z 2104/2124 17016KT P6SM BKN015 BKN150
FM211000 18013KT P6SM VCSH OVC020
FM211800 19020G28KT 6SM -SHRA BR OVC025
Nessun NOTAM noto per questo aeroporto.



MetMap, La meteo Aeronautica in un colpo d'occhio ! - Copyright ORBIFLY Dicembre 2007 - Disclaimer

ORBIFLY MET'MAP TEAM :

Programmazione e sviluppo : Alexandra Zaïnal
Concezione e sviluppo : Baudouin d'Aumeries
Co-Programmazione e sviluppo : Marc-Olivier Méhu
Supporto tecnico e logistico : Manuel Goepfert
Aiuto per la traduzione : Arnaldo La Scala

Contatto : metmap@orbifly.com




FONTI E CREDITI :

   NOAA       Earth
Advisory